sensor_id;sensor_type;location;lat;lon;timestamp;P1;durP1;ratioP1;P2;durP2;ratioP2
56667;SDS011;42542;48.360;10.958;2022-11-20T00:01:06;9.15;;;3.47;;
56667;SDS011;42542;48.360;10.958;2022-11-20T00:04:10;9.67;;;3.40;;
56667;SDS011;42542;48.360;10.958;2022-11-20T00:07:13;8.23;;;3.33;;
56667;SDS011;42542;48.360;10.958;2022-11-20T00:10:14;7.82;;;3.15;;
56667;SDS011;42542;48.360;10.958;2022-11-20T00:13:16;9.38;;;3.40;;
56667;SDS011;42542;48.360;10.958;2022-11-20T00:16:19;9.73;;;3.30;;
56667;SDS011;42542;48.360;10.958;2022-11-20T00:19:21;10.73;;;3.33;;
56667;SDS011;42542;48.360;10.958;2022-11-20T00:22:23;10.70;;;3.75;;
56667;SDS011;42542;48.360;10.958;2022-11-20T00:25:25;10.23;;;3.40;;
56667;SDS011;42542;48.360;10.958;2022-11-20T00:28:26;8.50;;;3.03;;
56667;SDS011;42542;48.360;10.958;2022-11-20T00:31:28;8.68;;;3.30;;
56667;SDS011;42542;48.360;10.958;2022-11-20T00:34:31;9.27;;;3.50;;
56667;SDS011;42542;48.360;10.958;2022-11-20T00:37:32;11.32;;;3.13;;
56667;SDS011;42542;48.360;10.958;2022-11-20T00:40:34;9.90;;;3.40;;
56667;SDS011;42542;48.360;10.958;2022-11-20T00:43:36;8.45;;;3.13;;
56667;SDS011;42542;48.360;10.958;2022-11-20T00:46:38;8.98;;;2.97;;
56667;SDS011;42542;48.360;10.958;2022-11-20T00:49:40;8.68;;;3.25;;
56667;SDS011;42542;48.360;10.958;2022-11-20T00:52:41;9.43;;;3.25;;
56667;SDS011;42542;48.360;10.958;2022-11-20T00:55:43;7.73;;;3.13;;
56667;SDS011;42542;48.360;10.958;2022-11-20T00:58:45;9.43;;;3.20;;
56667;SDS011;42542;48.360;10.958;2022-11-20T01:01:47;8.57;;;3.30;;
56667;SDS011;42542;48.360;10.958;2022-11-20T01:04:49;10.40;;;3.20;;
56667;SDS011;42542;48.360;10.958;2022-11-20T01:07:50;8.45;;;3.10;;
56667;SDS011;42542;48.360;10.958;2022-11-20T01:10:52;8.60;;;3.15;;
56667;SDS011;42542;48.360;10.958;2022-11-20T01:13:54;8.45;;;2.92;;
56667;SDS011;42542;48.360;10.958;2022-11-20T01:16:56;8.63;;;3.00;;
56667;SDS011;42542;48.360;10.958;2022-11-20T01:19:58;11.15;;;3.35;;
56667;SDS011;42542;48.360;10.958;2022-11-20T01:23:02;9.45;;;3.25;;
56667;SDS011;42542;48.360;10.958;2022-11-20T01:26:07;10.10;;;3.57;;
56667;SDS011;42542;48.360;10.958;2022-11-20T01:29:14;8.88;;;2.92;;
56667;SDS011;42542;48.360;10.958;2022-11-20T01:32:18;7.75;;;2.92;;
56667;SDS011;42542;48.360;10.958;2022-11-20T01:35:19;8.27;;;3.20;;
56667;SDS011;42542;48.360;10.958;2022-11-20T01:38:21;8.93;;;3.35;;
56667;SDS011;42542;48.360;10.958;2022-11-20T01:41:24;9.35;;;3.22;;
56667;SDS011;42542;48.360;10.958;2022-11-20T01:48:00;8.95;;;3.65;;
56667;SDS011;42542;48.360;10.958;2022-11-20T01:51:02;8.98;;;3.30;;
56667;SDS011;42542;48.360;10.958;2022-11-20T01:54:06;7.82;;;3.10;;
56667;SDS011;42542;48.360;10.958;2022-11-20T01:57:12;9.60;;;3.17;;
56667;SDS011;42542;48.360;10.958;2022-11-20T02:00:16;8.93;;;3.25;;
56667;SDS011;42542;48.360;10.958;2022-11-20T02:03:20;7.88;;;3.00;;
56667;SDS011;42542;48.360;10.958;2022-11-20T02:06:23;9.80;;;3.00;;
56667;SDS011;42542;48.360;10.958;2022-11-20T02:09:27;9.57;;;3.10;;
56667;SDS011;42542;48.360;10.958;2022-11-20T02:12:29;9.45;;;3.00;;
56667;SDS011;42542;48.360;10.958;2022-11-20T02:15:49;7.82;;;2.90;;
56667;SDS011;42542;48.360;10.958;2022-11-20T02:18:51;7.85;;;3.17;;
56667;SDS011;42542;48.360;10.958;2022-11-20T02:21:59;9.13;;;3.30;;
56667;SDS011;42542;48.360;10.958;2022-11-20T02:25:05;10.45;;;3.08;;
56667;SDS011;42542;48.360;10.958;2022-11-20T02:28:08;10.03;;;3.23;;
56667;SDS011;42542;48.360;10.958;2022-11-20T02:31:09;9.48;;;3.42;;
56667;SDS011;42542;48.360;10.958;2022-11-20T02:34:11;7.85;;;3.15;;
56667;SDS011;42542;48.360;10.958;2022-11-20T02:37:12;10.07;;;3.53;;
56667;SDS011;42542;48.360;10.958;2022-11-20T02:40:15;9.25;;;3.08;;
56667;SDS011;42542;48.360;10.958;2022-11-20T02:43:17;9.27;;;3.22;;
56667;SDS011;42542;48.360;10.958;2022-11-20T02:46:18;8.85;;;3.28;;
56667;SDS011;42542;48.360;10.958;2022-11-20T02:49:20;9.55;;;3.47;;
56667;SDS011;42542;48.360;10.958;2022-11-20T02:52:22;8.52;;;3.25;;
56667;SDS011;42542;48.360;10.958;2022-11-20T02:55:23;8.60;;;3.20;;
56667;SDS011;42542;48.360;10.958;2022-11-20T02:58:25;10.33;;;3.37;;
56667;SDS011;42542;48.360;10.958;2022-11-20T03:01:26;8.43;;;3.22;;
56667;SDS011;42542;48.360;10.958;2022-11-20T03:04:28;9.57;;;3.15;;
56667;SDS011;42542;48.360;10.958;2022-11-20T03:07:30;10.20;;;3.60;;
56667;SDS011;42542;48.360;10.958;2022-11-20T03:10:31;10.07;;;3.40;;
56667;SDS011;42542;48.360;10.958;2022-11-20T03:13:33;9.13;;;3.40;;
56667;SDS011;42542;48.360;10.958;2022-11-20T03:16:35;11.63;;;3.30;;
56667;SDS011;42542;48.360;10.958;2022-11-20T03:19:37;8.82;;;3.08;;
56667;SDS011;42542;48.360;10.958;2022-11-20T03:22:38;9.15;;;3.28;;
56667;SDS011;42542;48.360;10.958;2022-11-20T03:25:40;8.55;;;3.20;;
56667;SDS011;42542;48.360;10.958;2022-11-20T03:28:42;8.83;;;2.90;;
56667;SDS011;42542;48.360;10.958;2022-11-20T03:31:48;9.48;;;3.03;;
56667;SDS011;42542;48.360;10.958;2022-11-20T03:34:49;8.77;;;2.80;;
56667;SDS011;42542;48.360;10.958;2022-11-20T03:37:51;9.30;;;3.00;;
56667;SDS011;42542;48.360;10.958;2022-11-20T03:40:57;8.90;;;3.20;;
56667;SDS011;42542;48.360;10.958;2022-11-20T03:44:00;8.20;;;3.10;;
56667;SDS011;42542;48.360;10.958;2022-11-20T03:47:03;8.18;;;3.10;;
56667;SDS011;42542;48.360;10.958;2022-11-20T03:50:05;9.20;;;3.00;;
56667;SDS011;42542;48.360;10.958;2022-11-20T03:53:07;10.93;;;3.20;;
56667;SDS011;42542;48.360;10.958;2022-11-20T03:56:09;8.48;;;2.92;;
56667;SDS011;42542;48.360;10.958;2022-11-20T03:59:12;8.30;;;3.03;;
56667;SDS011;42542;48.360;10.958;2022-11-20T04:02:13;8.13;;;2.90;;
56667;SDS011;42542;48.360;10.958;2022-11-20T04:05:15;7.70;;;2.80;;
56667;SDS011;42542;48.360;10.958;2022-11-20T04:08:17;9.60;;;3.20;;
56667;SDS011;42542;48.360;10.958;2022-11-20T04:11:19;11.23;;;3.20;;
56667;SDS011;42542;48.360;10.958;2022-11-20T04:14:23;8.30;;;3.10;;
56667;SDS011;42542;48.360;10.958;2022-11-20T04:17:25;8.38;;;2.95;;
56667;SDS011;42542;48.360;10.958;2022-11-20T04:20:26;7.38;;;2.60;;
56667;SDS011;42542;48.360;10.958;2022-11-20T04:23:28;9.07;;;3.10;;
56667;SDS011;42542;48.360;10.958;2022-11-20T04:26:30;8.60;;;3.00;;
56667;SDS011;42542;48.360;10.958;2022-11-20T04:29:31;10.20;;;3.03;;
56667;SDS011;42542;48.360;10.958;2022-11-20T04:32:33;7.97;;;2.72;;
56667;SDS011;42542;48.360;10.958;2022-11-20T04:35:35;7.88;;;2.80;;
56667;SDS011;42542;48.360;10.958;2022-11-20T04:38:37;8.30;;;2.97;;
56667;SDS011;42542;48.360;10.958;2022-11-20T04:41:39;7.53;;;2.90;;
56667;SDS011;42542;48.360;10.958;2022-11-20T04:44:41;7.93;;;2.63;;
56667;SDS011;42542;48.360;10.958;2022-11-20T04:47:42;9.60;;;2.88;;
56667;SDS011;42542;48.360;10.958;2022-11-20T04:50:44;8.10;;;2.90;;
56667;SDS011;42542;48.360;10.958;2022-11-20T04:53:45;8.73;;;2.60;;
56667;SDS011;42542;48.360;10.958;2022-11-20T04:56:47;8.82;;;2.95;;
56667;SDS011;42542;48.360;10.958;2022-11-20T04:59:51;8.20;;;2.87;;
56667;SDS011;42542;48.360;10.958;2022-11-20T05:02:52;9.63;;;2.90;;
56667;SDS011;42542;48.360;10.958;2022-11-20T05:05:54;7.90;;;2.70;;
56667;SDS011;42542;48.360;10.958;2022-11-20T05:08:56;7.03;;;2.63;;
56667;SDS011;42542;48.360;10.958;2022-11-20T05:11:57;7.97;;;2.75;;
56667;SDS011;42542;48.360;10.958;2022-11-20T05:14:59;7.72;;;2.65;;
56667;SDS011;42542;48.360;10.958;2022-11-20T05:18:00;8.43;;;2.55;;
56667;SDS011;42542;48.360;10.958;2022-11-20T05:21:02;7.32;;;2.50;;
56667;SDS011;42542;48.360;10.958;2022-11-20T05:24:04;11.25;;;3.45;;
56667;SDS011;42542;48.360;10.958;2022-11-20T05:27:07;8.52;;;2.45;;
56667;SDS011;42542;48.360;10.958;2022-11-20T05:30:08;7.13;;;2.73;;
56667;SDS011;42542;48.360;10.958;2022-11-20T05:33:11;6.75;;;2.60;;
56667;SDS011;42542;48.360;10.958;2022-11-20T05:36:13;7.90;;;2.30;;
56667;SDS011;42542;48.360;10.958;2022-11-20T05:39:15;6.87;;;2.57;;
56667;SDS011;42542;48.360;10.958;2022-11-20T05:42:17;6.78;;;2.50;;
56667;SDS011;42542;48.360;10.958;2022-11-20T05:45:33;7.32;;;2.50;;
56667;SDS011;42542;48.360;10.958;2022-11-20T05:48:35;8.55;;;2.53;;
56667;SDS011;42542;48.360;10.958;2022-11-20T05:51:38;6.72;;;2.38;;
56667;SDS011;42542;48.360;10.958;2022-11-20T05:54:39;7.10;;;2.58;;
56667;SDS011;42542;48.360;10.958;2022-11-20T05:57:41;7.53;;;2.65;;
56667;SDS011;42542;48.360;10.958;2022-11-20T06:00:42;7.87;;;2.67;;
56667;SDS011;42542;48.360;10.958;2022-11-20T06:03:44;8.30;;;2.45;;
56667;SDS011;42542;48.360;10.958;2022-11-20T06:06:48;6.93;;;2.28;;
56667;SDS011;42542;48.360;10.958;2022-11-20T06:09:50;8.23;;;2.80;;
56667;SDS011;42542;48.360;10.958;2022-11-20T06:12:51;6.63;;;2.40;;
56667;SDS011;42542;48.360;10.958;2022-11-20T06:15:53;7.70;;;2.50;;
56667;SDS011;42542;48.360;10.958;2022-11-20T06:18:55;9.02;;;2.60;;
56667;SDS011;42542;48.360;10.958;2022-11-20T06:21:56;10.07;;;2.83;;
56667;SDS011;42542;48.360;10.958;2022-11-20T06:24:58;7.93;;;2.35;;
56667;SDS011;42542;48.360;10.958;2022-11-20T06:27:59;6.03;;;2.22;;
56667;SDS011;42542;48.360;10.958;2022-11-20T06:31:01;6.97;;;2.40;;
56667;SDS011;42542;48.360;10.958;2022-11-20T06:34:04;7.50;;;2.42;;
56667;SDS011;42542;48.360;10.958;2022-11-20T06:37:07;7.47;;;2.30;;
56667;SDS011;42542;48.360;10.958;2022-11-20T06:40:09;6.13;;;2.20;;
56667;SDS011;42542;48.360;10.958;2022-11-20T06:43:11;6.63;;;2.40;;
56667;SDS011;42542;48.360;10.958;2022-11-20T06:46:13;6.93;;;2.30;;
56667;SDS011;42542;48.360;10.958;2022-11-20T06:49:15;6.57;;;2.47;;
56667;SDS011;42542;48.360;10.958;2022-11-20T06:52:17;7.13;;;2.30;;
56667;SDS011;42542;48.360;10.958;2022-11-20T06:55:19;6.75;;;2.30;;
56667;SDS011;42542;48.360;10.958;2022-11-20T06:58:21;7.07;;;2.30;;
56667;SDS011;42542;48.360;10.958;2022-11-20T07:01:22;6.90;;;2.47;;
56667;SDS011;42542;48.360;10.958;2022-11-20T07:04:24;7.03;;;2.47;;
56667;SDS011;42542;48.360;10.958;2022-11-20T07:07:25;6.13;;;2.13;;
56667;SDS011;42542;48.360;10.958;2022-11-20T07:10:27;7.50;;;2.53;;
56667;SDS011;42542;48.360;10.958;2022-11-20T07:13:29;8.23;;;2.78;;
56667;SDS011;42542;48.360;10.958;2022-11-20T07:16:31;7.90;;;2.60;;
56667;SDS011;42542;48.360;10.958;2022-11-20T07:19:32;7.35;;;2.38;;
56667;SDS011;42542;48.360;10.958;2022-11-20T07:22:34;6.50;;;2.25;;
56667;SDS011;42542;48.360;10.958;2022-11-20T07:25:35;6.72;;;2.45;;
56667;SDS011;42542;48.360;10.958;2022-11-20T07:28:37;6.75;;;2.63;;
56667;SDS011;42542;48.360;10.958;2022-11-20T07:31:39;8.63;;;2.63;;
56667;SDS011;42542;48.360;10.958;2022-11-20T07:34:40;6.47;;;2.45;;
56667;SDS011;42542;48.360;10.958;2022-11-20T07:37:42;7.95;;;2.60;;
56667;SDS011;42542;48.360;10.958;2022-11-20T07:40:44;9.10;;;3.63;;
56667;SDS011;42542;48.360;10.958;2022-11-20T07:43:45;7.57;;;2.85;;
56667;SDS011;42542;48.360;10.958;2022-11-20T07:46:47;9.02;;;3.00;;
56667;SDS011;42542;48.360;10.958;2022-11-20T07:49:48;7.57;;;2.80;;
56667;SDS011;42542;48.360;10.958;2022-11-20T07:52:50;7.28;;;2.88;;
56667;SDS011;42542;48.360;10.958;2022-11-20T07:55:51;8.13;;;2.95;;
56667;SDS011;42542;48.360;10.958;2022-11-20T07:58:53;7.32;;;2.78;;
56667;SDS011;42542;48.360;10.958;2022-11-20T08:01:55;8.30;;;2.70;;
56667;SDS011;42542;48.360;10.958;2022-11-20T08:04:56;8.32;;;2.80;;
56667;SDS011;42542;48.360;10.958;2022-11-20T08:07:58;9.13;;;2.75;;
56667;SDS011;42542;48.360;10.958;2022-11-20T08:11:00;7.43;;;2.50;;
56667;SDS011;42542;48.360;10.958;2022-11-20T08:14:20;7.20;;;2.40;;
56667;SDS011;42542;48.360;10.958;2022-11-20T08:17:21;9.73;;;3.55;;
56667;SDS011;42542;48.360;10.958;2022-11-20T08:20:23;7.68;;;2.90;;
56667;SDS011;42542;48.360;10.958;2022-11-20T08:23:24;7.55;;;2.72;;
56667;SDS011;42542;48.360;10.958;2022-11-20T08:26:26;9.38;;;2.70;;
56667;SDS011;42542;48.360;10.958;2022-11-20T08:29:28;7.45;;;2.60;;
56667;SDS011;42542;48.360;10.958;2022-11-20T08:32:29;7.83;;;2.70;;
56667;SDS011;42542;48.360;10.958;2022-11-20T08:35:34;7.25;;;2.30;;
56667;SDS011;42542;48.360;10.958;2022-11-20T08:38:37;7.25;;;2.40;;
56667;SDS011;42542;48.360;10.958;2022-11-20T08:41:38;7.20;;;2.43;;
56667;SDS011;42542;48.360;10.958;2022-11-20T08:44:40;6.75;;;2.40;;
56667;SDS011;42542;48.360;10.958;2022-11-20T08:47:42;7.13;;;2.42;;
56667;SDS011;42542;48.360;10.958;2022-11-20T08:50:44;8.65;;;2.80;;
56667;SDS011;42542;48.360;10.958;2022-11-20T08:53:46;17.60;;;5.85;;
56667;SDS011;42542;48.360;10.958;2022-11-20T08:56:49;16.25;;;5.78;;
56667;SDS011;42542;48.360;10.958;2022-11-20T08:59:51;11.77;;;4.60;;
56667;SDS011;42542;48.360;10.958;2022-11-20T09:03:06;11.93;;;4.10;;
56667;SDS011;42542;48.360;10.958;2022-11-20T09:06:08;8.32;;;3.17;;
56667;SDS011;42542;48.360;10.958;2022-11-20T09:09:09;7.93;;;2.92;;
56667;SDS011;42542;48.360;10.958;2022-11-20T09:12:11;7.83;;;2.70;;
56667;SDS011;42542;48.360;10.958;2022-11-20T09:15:12;7.57;;;2.60;;
56667;SDS011;42542;48.360;10.958;2022-11-20T09:18:14;7.28;;;2.50;;
56667;SDS011;42542;48.360;10.958;2022-11-20T09:21:16;6.45;;;2.35;;
56667;SDS011;42542;48.360;10.958;2022-11-20T09:24:18;7.13;;;2.55;;
56667;SDS011;42542;48.360;10.958;2022-11-20T09:27:20;6.40;;;2.35;;
56667;SDS011;42542;48.360;10.958;2022-11-20T09:30:22;8.60;;;3.08;;
56667;SDS011;42542;48.360;10.958;2022-11-20T09:33:24;8.00;;;3.03;;
56667;SDS011;42542;48.360;10.958;2022-11-20T09:36:26;7.15;;;2.42;;
56667;SDS011;42542;48.360;10.958;2022-11-20T09:39:27;6.43;;;2.10;;
56667;SDS011;42542;48.360;10.958;2022-11-20T09:55:16;7.03;;;2.60;;
56667;SDS011;42542;48.360;10.958;2022-11-20T09:58:40;7.70;;;2.13;;
56667;SDS011;42542;48.360;10.958;2022-11-20T10:01:44;7.40;;;2.63;;
56667;SDS011;42542;48.360;10.958;2022-11-20T10:04:58;6.00;;;2.10;;
56667;SDS011;42542;48.360;10.958;2022-11-20T10:11:44;5.70;;;1.90;;
56667;SDS011;42542;48.360;10.958;2022-11-20T10:31:34;6.60;;;2.40;;
56667;SDS011;42542;48.360;10.958;2022-11-20T10:34:44;8.13;;;2.33;;
56667;SDS011;42542;48.360;10.958;2022-11-20T10:37:49;5.47;;;1.80;;
56667;SDS011;42542;48.360;10.958;2022-11-20T10:40:57;5.90;;;1.90;;
56667;SDS011;42542;48.360;10.958;2022-11-20T10:44:22;5.43;;;1.77;;
56667;SDS011;42542;48.360;10.958;2022-11-20T10:51:40;7.00;;;2.28;;
56667;SDS011;42542;48.360;10.958;2022-11-20T10:55:01;6.22;;;1.70;;
56667;SDS011;42542;48.360;10.958;2022-11-20T11:01:42;5.60;;;1.88;;
56667;SDS011;42542;48.360;10.958;2022-11-20T11:04:45;5.80;;;1.80;;
56667;SDS011;42542;48.360;10.958;2022-11-20T11:07:56;6.00;;;1.83;;
56667;SDS011;42542;48.360;10.958;2022-11-20T11:11:00;5.27;;;1.40;;
56667;SDS011;42542;48.360;10.958;2022-11-20T11:14:08;5.75;;;1.77;;
56667;SDS011;42542;48.360;10.958;2022-11-20T11:20:24;5.67;;;1.80;;
56667;SDS011;42542;48.360;10.958;2022-11-20T11:26:50;6.38;;;1.80;;
56667;SDS011;42542;48.360;10.958;2022-11-20T11:30:10;4.88;;;1.60;;
56667;SDS011;42542;48.360;10.958;2022-11-20T11:33:19;5.43;;;1.60;;
56667;SDS011;42542;48.360;10.958;2022-11-20T11:36:23;5.18;;;1.50;;
56667;SDS011;42542;48.360;10.958;2022-11-20T11:39:27;5.63;;;1.52;;
56667;SDS011;42542;48.360;10.958;2022-11-20T11:42:31;5.23;;;1.30;;
56667;SDS011;42542;48.360;10.958;2022-11-20T11:45:33;6.72;;;1.90;;
56667;SDS011;42542;48.360;10.958;2022-11-20T11:48:35;5.63;;;1.63;;
56667;SDS011;42542;48.360;10.958;2022-11-20T11:55:00;5.25;;;1.48;;
56667;SDS011;42542;48.360;10.958;2022-11-20T12:04:44;5.50;;;1.73;;
56667;SDS011;42542;48.360;10.958;2022-11-20T12:07:58;5.63;;;1.58;;
56667;SDS011;42542;48.360;10.958;2022-11-20T12:11:22;6.38;;;2.00;;
56667;SDS011;42542;48.360;10.958;2022-11-20T12:14:44;5.67;;;1.77;;
56667;SDS011;42542;48.360;10.958;2022-11-20T12:17:51;6.45;;;1.85;;
56667;SDS011;42542;48.360;10.958;2022-11-20T12:24:40;7.80;;;2.20;;
56667;SDS011;42542;48.360;10.958;2022-11-20T12:28:19;6.93;;;2.28;;
56667;SDS011;42542;48.360;10.958;2022-11-20T12:42:01;7.22;;;2.50;;
56667;SDS011;42542;48.360;10.958;2022-11-20T12:46:20;5.40;;;1.63;;
56667;SDS011;42542;48.360;10.958;2022-11-20T12:49:20;5.47;;;1.80;;
56667;SDS011;42542;48.360;10.958;2022-11-20T12:52:48;5.32;;;1.83;;
56667;SDS011;42542;48.360;10.958;2022-11-20T13:05:21;5.80;;;2.00;;
56667;SDS011;42542;48.360;10.958;2022-11-20T13:08:36;5.22;;;1.80;;
56667;SDS011;42542;48.360;10.958;2022-11-20T13:11:47;6.65;;;2.30;;
56667;SDS011;42542;48.360;10.958;2022-11-20T13:18:53;5.55;;;1.67;;
56667;SDS011;42542;48.360;10.958;2022-11-20T13:21:55;5.63;;;1.77;;
56667;SDS011;42542;48.360;10.958;2022-11-20T13:24:57;5.28;;;1.63;;
56667;SDS011;42542;48.360;10.958;2022-11-20T13:27:59;5.47;;;1.60;;
56667;SDS011;42542;48.360;10.958;2022-11-20T13:31:28;5.53;;;1.87;;
56667;SDS011;42542;48.360;10.958;2022-11-20T13:34:34;5.47;;;1.80;;
56667;SDS011;42542;48.360;10.958;2022-11-20T13:37:37;5.70;;;1.80;;
56667;SDS011;42542;48.360;10.958;2022-11-20T13:40:52;5.38;;;1.77;;
56667;SDS011;42542;48.360;10.958;2022-11-20T13:43:59;5.53;;;1.80;;
56667;SDS011;42542;48.360;10.958;2022-11-20T13:47:21;6.45;;;2.00;;
56667;SDS011;42542;48.360;10.958;2022-11-20T13:50:39;4.93;;;1.70;;
56667;SDS011;42542;48.360;10.958;2022-11-20T13:54:17;6.63;;;2.30;;
56667;SDS011;42542;48.360;10.958;2022-11-20T14:00:48;8.85;;;3.42;;
56667;SDS011;42542;48.360;10.958;2022-11-20T14:03:56;8.27;;;3.40;;
56667;SDS011;42542;48.360;10.958;2022-11-20T14:07:06;9.07;;;2.70;;
56667;SDS011;42542;48.360;10.958;2022-11-20T14:10:20;8.40;;;3.58;;
56667;SDS011;42542;48.360;10.958;2022-11-20T14:13:31;10.93;;;3.78;;
56667;SDS011;42542;48.360;10.958;2022-11-20T14:16:34;10.55;;;4.40;;
56667;SDS011;42542;48.360;10.958;2022-11-20T14:19:37;8.07;;;3.10;;
56667;SDS011;42542;48.360;10.958;2022-11-20T14:22:52;9.80;;;3.67;;
56667;SDS011;42542;48.360;10.958;2022-11-20T14:25:54;7.87;;;2.10;;
56667;SDS011;42542;48.360;10.958;2022-11-20T14:28:56;7.75;;;2.78;;
56667;SDS011;42542;48.360;10.958;2022-11-20T14:31:58;6.47;;;2.28;;
56667;SDS011;42542;48.360;10.958;2022-11-20T14:35:02;6.63;;;2.40;;
56667;SDS011;42542;48.360;10.958;2022-11-20T14:38:11;6.00;;;1.92;;
56667;SDS011;42542;48.360;10.958;2022-11-20T14:41:22;6.22;;;2.10;;
56667;SDS011;42542;48.360;10.958;2022-11-20T14:44:29;6.07;;;2.05;;
56667;SDS011;42542;48.360;10.958;2022-11-20T14:47:33;6.57;;;1.90;;
56667;SDS011;42542;48.360;10.958;2022-11-20T14:50:37;6.35;;;2.20;;
56667;SDS011;42542;48.360;10.958;2022-11-20T14:53:39;9.68;;;2.90;;
56667;SDS011;42542;48.360;10.958;2022-11-20T14:56:41;6.53;;;1.97;;
56667;SDS011;42542;48.360;10.958;2022-11-20T15:03:14;7.15;;;2.13;;
56667;SDS011;42542;48.360;10.958;2022-11-20T15:06:24;4.97;;;1.57;;
56667;SDS011;42542;48.360;10.958;2022-11-20T15:09:27;5.60;;;1.70;;
56667;SDS011;42542;48.360;10.958;2022-11-20T15:12:30;5.22;;;1.70;;
56667;SDS011;42542;48.360;10.958;2022-11-20T15:15:35;5.63;;;1.83;;
56667;SDS011;42542;48.360;10.958;2022-11-20T15:18:43;6.75;;;1.75;;
56667;SDS011;42542;48.360;10.958;2022-11-20T15:21:45;4.53;;;1.50;;
56667;SDS011;42542;48.360;10.958;2022-11-20T15:24:50;6.18;;;1.70;;
56667;SDS011;42542;48.360;10.958;2022-11-20T15:27:56;6.70;;;1.90;;
56667;SDS011;42542;48.360;10.958;2022-11-20T15:30:58;4.93;;;1.50;;
56667;SDS011;42542;48.360;10.958;2022-11-20T15:34:01;5.38;;;1.40;;
56667;SDS011;42542;48.360;10.958;2022-11-20T15:37:02;7.03;;;1.90;;
56667;SDS011;42542;48.360;10.958;2022-11-20T15:40:04;6.80;;;2.00;;
56667;SDS011;42542;48.360;10.958;2022-11-20T15:43:07;7.07;;;2.30;;
56667;SDS011;42542;48.360;10.958;2022-11-20T15:46:15;6.78;;;2.03;;
56667;SDS011;42542;48.360;10.958;2022-11-20T15:49:18;4.70;;;1.35;;
56667;SDS011;42542;48.360;10.958;2022-11-20T15:52:20;5.60;;;1.40;;
56667;SDS011;42542;48.360;10.958;2022-11-20T15:55:21;5.47;;;1.40;;
56667;SDS011;42542;48.360;10.958;2022-11-20T15:58:23;7.10;;;2.10;;
56667;SDS011;42542;48.360;10.958;2022-11-20T16:01:27;6.13;;;1.73;;
56667;SDS011;42542;48.360;10.958;2022-11-20T16:04:29;6.25;;;1.80;;
56667;SDS011;42542;48.360;10.958;2022-11-20T16:07:30;6.17;;;1.80;;
56667;SDS011;42542;48.360;10.958;2022-11-20T16:10:35;5.70;;;1.88;;
56667;SDS011;42542;48.360;10.958;2022-11-20T16:13:39;8.98;;;3.78;;
56667;SDS011;42542;48.360;10.958;2022-11-20T16:16:59;6.90;;;1.90;;
56667;SDS011;42542;48.360;10.958;2022-11-20T16:20:02;6.10;;;2.25;;
56667;SDS011;42542;48.360;10.958;2022-11-20T16:23:04;5.03;;;1.70;;
56667;SDS011;42542;48.360;10.958;2022-11-20T16:26:16;6.43;;;1.88;;
56667;SDS011;42542;48.360;10.958;2022-11-20T16:29:20;5.83;;;2.00;;
56667;SDS011;42542;48.360;10.958;2022-11-20T16:32:21;7.40;;;1.83;;
56667;SDS011;42542;48.360;10.958;2022-11-20T16:35:25;7.28;;;2.08;;
56667;SDS011;42542;48.360;10.958;2022-11-20T16:38:28;6.87;;;1.87;;
56667;SDS011;42542;48.360;10.958;2022-11-20T16:41:31;5.82;;;2.00;;
56667;SDS011;42542;48.360;10.958;2022-11-20T16:44:38;5.50;;;1.80;;
56667;SDS011;42542;48.360;10.958;2022-11-20T16:47:40;6.43;;;2.10;;
56667;SDS011;42542;48.360;10.958;2022-11-20T16:50:45;5.90;;;1.70;;
56667;SDS011;42542;48.360;10.958;2022-11-20T16:53:56;4.55;;;1.40;;
56667;SDS011;42542;48.360;10.958;2022-11-20T16:56:57;5.35;;;1.60;;
56667;SDS011;42542;48.360;10.958;2022-11-20T16:59:59;5.17;;;1.60;;
56667;SDS011;42542;48.360;10.958;2022-11-20T17:03:03;5.78;;;1.55;;
56667;SDS011;42542;48.360;10.958;2022-11-20T17:06:15;6.65;;;1.92;;
56667;SDS011;42542;48.360;10.958;2022-11-20T17:09:18;6.10;;;1.90;;
56667;SDS011;42542;48.360;10.958;2022-11-20T17:12:20;6.35;;;2.20;;
56667;SDS011;42542;48.360;10.958;2022-11-20T17:15:22;7.53;;;2.33;;
56667;SDS011;42542;48.360;10.958;2022-11-20T17:18:23;10.73;;;2.95;;
56667;SDS011;42542;48.360;10.958;2022-11-20T17:21:27;7.70;;;2.65;;
56667;SDS011;42542;48.360;10.958;2022-11-20T17:24:30;7.43;;;2.50;;
56667;SDS011;42542;48.360;10.958;2022-11-20T17:27:32;12.75;;;5.15;;
56667;SDS011;42542;48.360;10.958;2022-11-20T17:30:34;9.07;;;3.90;;
56667;SDS011;42542;48.360;10.958;2022-11-20T17:33:36;9.38;;;3.85;;
56667;SDS011;42542;48.360;10.958;2022-11-20T17:36:39;9.77;;;3.92;;
56667;SDS011;42542;48.360;10.958;2022-11-20T17:39:47;10.87;;;4.77;;
56667;SDS011;42542;48.360;10.958;2022-11-20T17:42:49;12.23;;;5.63;;
56667;SDS011;42542;48.360;10.958;2022-11-20T17:45:50;17.35;;;8.80;;
56667;SDS011;42542;48.360;10.958;2022-11-20T17:48:52;14.00;;;6.72;;
56667;SDS011;42542;48.360;10.958;2022-11-20T17:51:55;10.32;;;4.47;;
56667;SDS011;42542;48.360;10.958;2022-11-20T17:54:56;9.98;;;4.68;;
56667;SDS011;42542;48.360;10.958;2022-11-20T17:57:59;8.88;;;3.80;;
56667;SDS011;42542;48.360;10.958;2022-11-20T18:01:06;8.33;;;3.20;;
56667;SDS011;42542;48.360;10.958;2022-11-20T18:04:09;8.25;;;3.38;;
56667;SDS011;42542;48.360;10.958;2022-11-20T18:07:10;9.00;;;3.00;;
56667;SDS011;42542;48.360;10.958;2022-11-20T18:10:12;9.50;;;3.60;;
56667;SDS011;42542;48.360;10.958;2022-11-20T18:13:14;9.05;;;3.00;;
56667;SDS011;42542;48.360;10.958;2022-11-20T18:16:15;7.65;;;2.78;;
56667;SDS011;42542;48.360;10.958;2022-11-20T18:19:18;8.45;;;3.05;;
56667;SDS011;42542;48.360;10.958;2022-11-20T18:22:23;9.50;;;3.30;;
56667;SDS011;42542;48.360;10.958;2022-11-20T18:25:25;9.95;;;3.70;;
56667;SDS011;42542;48.360;10.958;2022-11-20T18:28:26;9.43;;;3.30;;
56667;SDS011;42542;48.360;10.958;2022-11-20T18:31:28;9.80;;;3.50;;
56667;SDS011;42542;48.360;10.958;2022-11-20T18:34:29;9.68;;;3.20;;
56667;SDS011;42542;48.360;10.958;2022-11-20T18:37:31;11.05;;;3.90;;
56667;SDS011;42542;48.360;10.958;2022-11-20T18:40:33;11.43;;;3.70;;
56667;SDS011;42542;48.360;10.958;2022-11-20T18:43:36;9.52;;;3.63;;
56667;SDS011;42542;48.360;10.958;2022-11-20T18:46:56;8.80;;;3.42;;
56667;SDS011;42542;48.360;10.958;2022-11-20T18:49:58;9.50;;;3.22;;
56667;SDS011;42542;48.360;10.958;2022-11-20T18:53:01;10.48;;;3.70;;
56667;SDS011;42542;48.360;10.958;2022-11-20T18:56:03;9.77;;;3.90;;
56667;SDS011;42542;48.360;10.958;2022-11-20T18:59:07;13.32;;;4.30;;
56667;SDS011;42542;48.360;10.958;2022-11-20T19:02:11;10.00;;;4.20;;
56667;SDS011;42542;48.360;10.958;2022-11-20T19:05:14;11.50;;;4.70;;
56667;SDS011;42542;48.360;10.958;2022-11-20T19:08:16;12.27;;;4.70;;
56667;SDS011;42542;48.360;10.958;2022-11-20T19:11:20;10.10;;;4.00;;
56667;SDS011;42542;48.360;10.958;2022-11-20T19:14:21;11.40;;;4.05;;
56667;SDS011;42542;48.360;10.958;2022-11-20T19:17:24;9.73;;;3.80;;
56667;SDS011;42542;48.360;10.958;2022-11-20T19:20:26;10.60;;;4.25;;
56667;SDS011;42542;48.360;10.958;2022-11-20T19:23:28;12.18;;;4.65;;
56667;SDS011;42542;48.360;10.958;2022-11-20T19:26:29;11.02;;;4.50;;
56667;SDS011;42542;48.360;10.958;2022-11-20T19:29:31;12.70;;;4.53;;
56667;SDS011;42542;48.360;10.958;2022-11-20T19:32:33;11.40;;;4.40;;
56667;SDS011;42542;48.360;10.958;2022-11-20T19:35:35;14.52;;;5.15;;
56667;SDS011;42542;48.360;10.958;2022-11-20T19:38:40;12.95;;;5.13;;
56667;SDS011;42542;48.360;10.958;2022-11-20T19:41:48;11.33;;;4.97;;
56667;SDS011;42542;48.360;10.958;2022-11-20T19:44:50;12.70;;;4.60;;
56667;SDS011;42542;48.360;10.958;2022-11-20T19:47:53;12.65;;;4.85;;